createdAt,value
2023-03-22T00:00:17.797Z,100424.44
2023-03-22T00:03:21.494Z,100410.94
2023-03-22T00:06:24.193Z,100414.53
2023-03-22T00:09:26.789Z,100409.41
2023-03-22T00:12:29.186Z,100411.34
2023-03-22T00:15:32.142Z,100404.47
2023-03-22T00:18:34.573Z,100410.22
2023-03-22T00:21:37.234Z,100408.16
2023-03-22T00:24:39.701Z,100405.31
2023-03-22T00:27:42.437Z,100408.97
2023-03-22T00:30:52.023Z,100405.91
2023-03-22T00:33:56.614Z,100410.25
2023-03-22T00:36:59.142Z,100405.00
2023-03-22T00:40:01.806Z,100405.81
2023-03-22T00:43:04.331Z,100409.59
2023-03-22T00:46:07.542Z,100410.72
2023-03-22T00:49:09.897Z,100404.81
2023-03-22T00:52:12.480Z,100403.34
2023-03-22T00:55:14.828Z,100402.63
2023-03-22T00:58:17.470Z,100404.47
2023-03-22T01:01:20.146Z,100405.38
2023-03-22T01:04:26.109Z,100407.16
2023-03-22T01:07:28.527Z,100404.78
2023-03-22T01:10:31.137Z,100402.28
2023-03-22T01:13:33.487Z,100399.87
2023-03-22T01:16:42.198Z,100392.22
2023-03-22T01:19:44.789Z,100397.41
2023-03-22T01:22:47.610Z,100386.22
2023-03-22T01:25:49.964Z,100382.81
2023-03-22T01:28:53.202Z,100376.91
2023-03-22T01:31:55.667Z,100380.44
2023-03-22T01:34:58.569Z,100377.97
2023-03-22T01:38:03.925Z,100378.78
2023-03-22T01:41:08.021Z,100375.44
2023-03-22T01:44:13.311Z,100382.44
2023-03-22T01:47:16.168Z,100380.81
2023-03-22T01:50:19.486Z,100379.16
2023-03-22T01:53:23.746Z,100381.84
2023-03-22T01:56:28.413Z,100384.41
2023-03-22T01:59:31.302Z,100379.31
2023-03-22T02:02:34.866Z,100388.91
2023-03-22T02:05:40.940Z,100384.66
2023-03-22T02:08:43.460Z,100389.87
2023-03-22T02:11:50.295Z,100395.09
2023-03-22T02:15:08.686Z,100396.00
2023-03-22T02:18:16.517Z,100394.97
2023-03-22T02:21:31.595Z,100396.66
2023-03-22T02:24:51.787Z,100397.41
2023-03-22T02:28:09.566Z,100399.16
2023-03-22T02:31:22.263Z,100393.31
2023-03-22T02:34:54.108Z,100395.09
2023-03-22T02:37:56.739Z,100398.56
2023-03-22T02:41:06.333Z,100401.19
2023-03-22T02:44:11.742Z,100403.66
2023-03-22T02:47:21.829Z,100408.72
2023-03-22T02:50:28.528Z,100407.03
2023-03-22T02:53:30.850Z,100405.44
2023-03-22T02:56:46.354Z,100408.03
2023-03-22T02:59:50.234Z,100408.88
2023-03-22T03:02:55.627Z,100420.75
2023-03-22T03:06:01.447Z,100408.47
2023-03-22T03:09:05.278Z,100409.25
2023-03-22T03:12:34.190Z,100408.25
2023-03-22T03:15:39.523Z,100407.34
2023-03-22T03:18:48.475Z,100417.34
2023-03-22T03:22:01.416Z,100414.81
2023-03-22T03:25:09.408Z,100406.03
2023-03-22T03:28:22.976Z,100419.87
2023-03-22T03:31:34.819Z,100410.37
2023-03-22T03:34:42.127Z,100414.69
2023-03-22T03:37:47.153Z,100415.38
2023-03-22T03:40:52.613Z,100420.66
2023-03-22T03:43:58.261Z,100424.03
2023-03-22T03:47:02.161Z,100415.38
2023-03-22T03:50:04.764Z,100418.97
2023-03-22T03:53:10.030Z,100424.28
2023-03-22T03:56:12.440Z,100423.41
2023-03-22T03:59:16.390Z,100423.50
2023-03-22T04:02:19.099Z,100415.81
2023-03-22T04:05:22.166Z,100408.78
2023-03-22T04:08:24.415Z,100415.75
2023-03-22T04:11:27.285Z,100402.75
2023-03-22T04:14:30.277Z,100415.47
2023-03-22T04:17:33.529Z,100404.50
2023-03-22T04:20:35.945Z,100409.81
2023-03-22T04:23:39.417Z,100412.44
2023-03-22T04:26:41.913Z,100409.97
2023-03-22T04:29:52.275Z,100419.47
2023-03-22T04:32:57.182Z,100430.84
2023-03-22T04:36:02.964Z,100426.78
2023-03-22T04:39:09.557Z,100426.72
2023-03-22T04:42:13.406Z,100429.38
2023-03-22T04:45:16.269Z,100430.28
2023-03-22T04:48:22.293Z,100429.38
2023-03-22T04:51:25.877Z,100417.41
2023-03-22T04:54:31.069Z,100426.84
2023-03-22T04:57:35.287Z,100425.12
2023-03-22T05:00:38.982Z,100434.53
2023-03-22T05:03:43.022Z,100436.97
2023-03-22T05:06:46.711Z,100431.72
2023-03-22T05:09:49.976Z,100440.97
2023-03-22T05:12:52.767Z,100454.63
2023-03-22T05:15:56.302Z,100457.87
2023-03-22T05:19:03.623Z,100450.06
2023-03-22T05:22:06.008Z,100444.88
2023-03-22T05:25:11.598Z,100454.25
2023-03-22T05:28:15.867Z,100454.06
2023-03-22T05:31:21.776Z,100451.16
2023-03-22T05:34:24.691Z,100455.44
2023-03-22T05:37:27.370Z,100459.56
2023-03-22T05:40:30.471Z,100469.44
2023-03-22T05:43:33.647Z,100463.72
2023-03-22T05:46:36.457Z,100465.94
2023-03-22T05:49:43.364Z,100457.66
2023-03-22T05:52:47.168Z,100469.75
2023-03-22T05:55:50.936Z,100470.87
2023-03-22T05:58:53.620Z,100471.56
2023-03-22T06:01:56.668Z,100483.69
2023-03-22T06:04:59.314Z,100482.91
2023-03-22T06:08:01.778Z,100480.63
2023-03-22T06:11:05.305Z,100488.31
2023-03-22T06:14:07.688Z,100488.56
2023-03-22T06:17:13.453Z,100483.19
2023-03-22T06:20:16.794Z,100468.84
2023-03-22T06:23:20.386Z,100485.09
2023-03-22T06:26:22.891Z,100486.19
2023-03-22T06:29:25.648Z,100501.22
2023-03-22T06:32:28.638Z,100503.06
2023-03-22T06:35:34.882Z,100497.44
2023-03-22T06:38:37.439Z,100500.66
2023-03-22T06:41:40.176Z,100493.88
2023-03-22T06:44:44.706Z,100501.09
2023-03-22T06:47:47.894Z,100500.44
2023-03-22T06:50:50.645Z,100511.13
2023-03-22T06:53:53.433Z,100506.78
2023-03-22T06:56:55.941Z,100506.62
2023-03-22T06:59:58.762Z,100508.28
2023-03-22T07:03:01.357Z,100508.16
2023-03-22T07:06:06.730Z,100508.78
2023-03-22T07:09:10.431Z,100505.47
2023-03-22T07:12:13.945Z,100509.03
2023-03-22T07:15:17.505Z,100504.47
2023-03-22T07:18:22.593Z,100509.88
2023-03-22T07:21:25.312Z,100509.81
2023-03-22T07:24:28.442Z,100519.13
2023-03-22T07:27:30.812Z,100527.47
2023-03-22T07:30:37.880Z,100520.12
2023-03-22T07:33:41.072Z,100511.06
2023-03-22T07:36:43.814Z,100510.22
2023-03-22T07:39:46.609Z,100512.69
2023-03-22T07:42:49.740Z,100516.22
2023-03-22T07:45:53.289Z,100507.91
2023-03-22T07:49:02.874Z,100508.50
2023-03-22T07:52:08.226Z,100511.03
2023-03-22T07:55:12.426Z,100519.44
2023-03-22T07:58:15.024Z,100510.63
2023-03-22T08:01:18.082Z,100511.03
2023-03-22T08:04:22.739Z,100501.81
2023-03-22T08:07:25.314Z,100494.87
2023-03-22T08:10:28.039Z,100493.69
2023-03-22T08:13:30.622Z,100505.19
2023-03-22T08:16:35.529Z,100506.13
2023-03-22T08:19:38.779Z,100495.53
2023-03-22T08:22:42.521Z,100499.28
2023-03-22T08:25:47.955Z,100505.50
2023-03-22T08:28:51.188Z,100513.50
2023-03-22T08:31:54.175Z,100510.47
2023-03-22T08:34:56.942Z,100515.03
2023-03-22T08:37:59.411Z,100510.44
2023-03-22T08:41:03.495Z,100508.84
2023-03-22T08:44:06.404Z,100512.72
2023-03-22T08:47:09.601Z,100512.53
2023-03-22T08:50:13.271Z,100512.84
2023-03-22T08:53:18.769Z,100509.56
2023-03-22T08:56:22.708Z,100508.56
2023-03-22T08:59:26.259Z,100503.72
2023-03-22T09:02:29.632Z,100504.53
2023-03-22T09:05:32.856Z,100512.25
2023-03-22T09:08:35.375Z,100518.63
2023-03-22T09:11:41.476Z,100513.69
2023-03-22T09:14:46.289Z,100518.22
2023-03-22T09:17:49.490Z,100518.00
2023-03-22T09:20:52.719Z,100509.06
2023-03-22T09:23:56.195Z,100504.25
2023-03-22T09:26:59.357Z,100511.13
2023-03-22T09:30:02.505Z,100509.44
2023-03-22T09:33:06.628Z,100505.81
2023-03-22T09:36:11.935Z,100498.53
2023-03-22T09:39:16.501Z,100495.19
2023-03-22T09:42:25.851Z,100489.72
2023-03-22T09:45:38.393Z,100491.44
2023-03-22T09:48:43.075Z,100487.87
2023-03-22T09:51:47.984Z,100490.31
2023-03-22T09:54:52.888Z,100485.81
2023-03-22T09:58:18.488Z,100483.53
2023-03-22T10:01:40.595Z,100473.34
2023-03-22T10:04:43.258Z,100482.72
2023-03-22T10:07:45.570Z,100481.66
2023-03-22T10:10:48.627Z,100488.13
2023-03-22T10:14:20.305Z,100484.50
2023-03-22T10:17:25.473Z,100483.50
2023-03-22T10:20:45.838Z,100482.19
2023-03-22T10:23:57.150Z,100480.63
2023-03-22T10:26:59.465Z,100477.81
2023-03-22T10:30:28.536Z,100478.34
2023-03-22T10:33:30.830Z,100477.47
2023-03-22T10:36:35.347Z,100480.91
2023-03-22T10:39:40.955Z,100480.09
2023-03-22T10:42:47.754Z,100475.09
2023-03-22T10:45:52.619Z,100476.22
2023-03-22T10:48:58.004Z,100471.97
2023-03-22T10:52:06.743Z,100461.91
2023-03-22T10:55:11.090Z,100466.31
2023-03-22T10:58:18.020Z,100472.19
2023-03-22T11:01:34.392Z,100469.81
2023-03-22T11:04:37.528Z,100471.28
2023-03-22T11:07:43.576Z,100463.22
2023-03-22T11:10:49.833Z,100466.53
2023-03-22T11:13:59.401Z,100456.88
2023-03-22T11:17:21.915Z,100453.00
2023-03-22T11:20:24.691Z,100446.44
2023-03-22T11:23:28.797Z,100442.31
2023-03-22T11:26:39.233Z,100438.22
2023-03-22T11:29:45.765Z,100432.38
2023-03-22T11:32:48.520Z,100431.03
2023-03-22T11:35:55.576Z,100436.66
2023-03-22T11:39:03.123Z,100425.22
2023-03-22T11:42:06.453Z,100429.78
2023-03-22T11:45:15.021Z,100421.47
2023-03-22T11:48:28.963Z,100422.69
2023-03-22T11:51:35.113Z,100421.69
2023-03-22T11:54:39.322Z,100422.91
2023-03-22T11:57:41.940Z,100410.31
2023-03-22T12:00:44.580Z,100411.09
2023-03-22T12:03:51.194Z,100422.63
2023-03-22T12:06:56.714Z,100408.22
2023-03-22T12:10:18.816Z,100419.06
2023-03-22T12:13:25.099Z,100421.53
2023-03-22T12:16:35.407Z,100420.78
2023-03-22T12:19:58.574Z,100415.66
2023-03-22T12:23:01.925Z,100416.59
2023-03-22T12:26:06.390Z,100409.87
2023-03-22T12:29:18.280Z,100405.03
2023-03-22T12:32:47.009Z,100406.72
2023-03-22T12:35:51.531Z,100404.94
2023-03-22T12:38:58.700Z,100404.62
2023-03-22T12:42:15.484Z,100404.59
2023-03-22T12:45:20.649Z,100400.63
2023-03-22T12:48:29.664Z,100401.34
2023-03-22T12:51:32.112Z,100399.25
2023-03-22T12:54:35.653Z,100397.22
2023-03-22T12:57:40.592Z,100398.09
2023-03-22T13:00:46.241Z,100392.56
2023-03-22T13:03:52.276Z,100391.25
2023-03-22T13:06:56.823Z,100383.53
2023-03-22T13:10:00.013Z,100369.56
2023-03-22T13:13:12.952Z,100366.50
2023-03-22T13:16:17.416Z,100365.91
2023-03-22T13:19:32.341Z,100367.78
2023-03-22T13:22:37.807Z,100366.84
2023-03-22T13:25:58.436Z,100358.56
2023-03-22T13:29:03.256Z,100353.34
2023-03-22T13:32:07.126Z,100361.69
2023-03-22T13:35:21.957Z,100356.41
2023-03-22T13:38:34.405Z,100348.63
2023-03-22T13:41:36.886Z,100346.97
2023-03-22T13:44:43.042Z,100343.56
2023-03-22T13:47:46.772Z,100340.62
2023-03-22T13:50:49.618Z,100343.91
2023-03-22T13:54:07.076Z,100341.97
2023-03-22T13:57:20.310Z,100336.34
2023-03-22T14:00:31.744Z,100326.31
2023-03-22T14:03:37.391Z,100330.31
2023-03-22T14:06:51.659Z,100325.59
2023-03-22T14:09:56.816Z,100324.84
2023-03-22T14:13:13.587Z,100321.91
2023-03-22T14:16:19.753Z,100317.94
2023-03-22T14:19:23.934Z,100319.13
